Moneymore, United Kingdom
Current Conditions -  °F | °C
As of 2:20 PM on Thursday 27 Nov 2014 (Local Time) from EGAA Reporting Station
Broken Clouds Broken Clouds  
Wind Chill: 43°   Ceiling: 2300
Heat Index: 46°   Visibility: 4mi
Dew Point: 46°   Wind: 7mph
Humidity: 100%   Direction: 100°E
Pressure: 29.5"   Gusts: NA
Location:  54.69°N, 6.67°W
Report Text: EGAA 271420Z 10006KT 6000 BKN023 08/08 Q0999
Loading
Personal Weather Stations






























Interactive Weather Map New forecast layout! Learn more

10-Day Weather Forecast

Advertisements
Track Severe Weather on mobile